< < Back
Terminal Aerodrome Forecast


Current Version              Previous Versions:   1  2  3  4  5  6  7  8  9  

Terminal Aerodrome Forecast

629
FTUS42 KTAE 282320
TAFDHN
TAF
KDHN 282320Z 2900/2924 30004KT P6SM FEW060
     FM292100 33007KT 6SM TSRA BKN040CB=

Latest METAR

370
SAUS70 KWBC 290200 RRA
MTRDHN
METAR KDHN 290153Z AUTO 31006KT 10SM CLR 29/23 A2999 RMK AO2 SLP150
T02890233


USA.gov is the U.S. government's official web portal to all federal, state and local government web resources and services.